createdAt,value
2022-12-18T00:02:49.478Z,89.28
2022-12-18T00:05:53.293Z,89.50
2022-12-18T00:08:57.903Z,89.46
2022-12-18T00:15:18.060Z,89.43
2022-12-18T00:18:20.675Z,89.19
2022-12-18T00:21:23.098Z,89.00
2022-12-18T00:24:25.307Z,89.11
2022-12-18T00:27:27.603Z,89.23
2022-12-18T00:30:30.030Z,89.28
2022-12-18T00:33:32.362Z,89.25
2022-12-18T00:36:35.575Z,89.41
2022-12-18T00:39:37.879Z,89.60
2022-12-18T00:42:58.223Z,90.01
2022-12-18T00:46:00.771Z,90.06
2022-12-18T00:49:03.822Z,89.83
2022-12-18T00:52:06.223Z,89.70
2022-12-18T00:55:09.027Z,89.39
2022-12-18T00:58:17.471Z,89.34
2022-12-18T01:01:20.012Z,89.46
2022-12-18T01:04:22.422Z,89.62
2022-12-18T01:07:24.764Z,89.51
2022-12-18T01:10:27.348Z,89.42
2022-12-18T01:13:33.218Z,89.18
2022-12-18T01:16:35.470Z,89.99
2022-12-18T01:19:40.434Z,90.17
2022-12-18T01:22:46.006Z,90.38
2022-12-18T01:25:48.221Z,90.35
2022-12-18T01:28:50.494Z,90.71
2022-12-18T01:31:57.023Z,90.25
2022-12-18T01:34:59.733Z,90.30
2022-12-18T01:38:03.031Z,90.19
2022-12-18T01:41:05.300Z,90.12
2022-12-18T01:44:45.646Z,90.37
2022-12-18T01:48:13.393Z,90.65
2022-12-18T01:51:16.242Z,90.57
2022-12-18T01:54:18.478Z,90.27
2022-12-18T01:57:21.047Z,90.87
2022-12-18T02:00:24.678Z,91.47
2022-12-18T02:03:27.314Z,91.66
2022-12-18T02:06:40.001Z,91.16
2022-12-18T02:10:01.171Z,91.00
2022-12-18T02:13:18.818Z,91.32
2022-12-18T02:17:08.313Z,91.38
2022-12-18T02:20:34.534Z,91.61
2022-12-18T02:24:04.620Z,91.74
2022-12-18T02:27:09.477Z,90.99
2022-12-18T02:30:12.962Z,91.11
2022-12-18T02:33:16.150Z,91.41
2022-12-18T02:36:21.063Z,91.51
2022-12-18T02:39:26.283Z,91.32
2022-12-18T02:42:39.080Z,91.61
2022-12-18T02:45:55.976Z,91.46
2022-12-18T02:49:37.808Z,91.28
2022-12-18T02:52:50.319Z,90.85
2022-12-18T02:55:52.628Z,90.93
2022-12-18T02:59:14.383Z,91.26
2022-12-18T03:02:30.266Z,91.22
2022-12-18T03:05:38.827Z,91.23
2022-12-18T03:08:45.430Z,91.00
2022-12-18T03:12:14.839Z,90.63
2022-12-18T03:15:29.624Z,90.66
2022-12-18T03:18:47.600Z,91.05
2022-12-18T03:21:56.448Z,91.35
2022-12-18T03:25:03.921Z,91.57
2022-12-18T03:28:09.544Z,91.56
2022-12-18T03:31:15.143Z,91.47
2022-12-18T03:34:27.892Z,91.63
2022-12-18T03:37:33.623Z,91.52
2022-12-18T03:41:05.024Z,91.43
2022-12-18T03:44:19.591Z,91.57
2022-12-18T03:47:22.224Z,91.35
2022-12-18T03:50:37.121Z,91.29
2022-12-18T03:53:50.141Z,91.41
2022-12-18T03:57:18.135Z,91.08
2022-12-18T04:00:21.631Z,91.16
2022-12-18T04:03:40.100Z,91.50
2022-12-18T04:06:44.710Z,91.24
2022-12-18T04:09:49.836Z,91.52
2022-12-18T04:12:57.093Z,91.24
2022-12-18T04:15:59.918Z,91.25
2022-12-18T04:19:03.111Z,91.17
2022-12-18T04:22:11.866Z,91.66
2022-12-18T04:25:21.296Z,91.47
2022-12-18T04:28:33.098Z,90.96
2022-12-18T04:31:35.607Z,91.11
2022-12-18T04:34:38.855Z,91.58
2022-12-18T04:37:41.897Z,91.33
2022-12-18T04:40:44.738Z,91.40
2022-12-18T04:43:55.863Z,91.32
2022-12-18T04:46:58.058Z,91.43
2022-12-18T04:50:00.393Z,91.59
2022-12-18T04:53:02.758Z,91.76
2022-12-18T04:56:10.456Z,92.03
2022-12-18T04:59:12.700Z,92.32
2022-12-18T05:02:14.997Z,92.63
2022-12-18T05:05:17.646Z,92.17
2022-12-18T05:08:19.866Z,92.51
2022-12-18T05:11:22.300Z,91.83
2022-12-18T05:14:24.593Z,91.16
2022-12-18T05:17:26.850Z,91.02
2022-12-18T05:20:29.826Z,90.44
2022-12-18T05:23:32.437Z,90.31
2022-12-18T05:26:34.669Z,90.18
2022-12-18T05:29:36.894Z,90.59
2022-12-18T05:32:39.649Z,90.57
2022-12-18T05:35:41.822Z,91.22
2022-12-18T05:38:44.187Z,91.53
2022-12-18T05:41:46.409Z,92.14
2022-12-18T05:44:49.214Z,92.36
2022-12-18T05:47:51.501Z,92.26
2022-12-18T05:50:53.694Z,92.22
2022-12-18T05:53:56.066Z,92.01
2022-12-18T05:56:58.790Z,91.86
2022-12-18T06:00:01.039Z,91.73
2022-12-18T06:03:03.766Z,91.45
2022-12-18T06:06:14.735Z,91.36
2022-12-18T06:09:17.003Z,90.59
2022-12-18T06:12:19.186Z,89.17
2022-12-18T06:15:21.465Z,89.73
2022-12-18T06:18:23.681Z,90.47
2022-12-18T06:21:26.629Z,89.79
2022-12-18T06:24:28.899Z,89.06
2022-12-18T06:27:31.503Z,89.11
2022-12-18T06:30:33.845Z,88.78
2022-12-18T06:33:36.736Z,89.16
2022-12-18T06:36:39.119Z,89.35
2022-12-18T06:39:41.327Z,90.71
2022-12-18T06:42:43.535Z,91.13
2022-12-18T06:45:47.344Z,91.29
2022-12-18T06:48:51.187Z,91.30
2022-12-18T06:51:53.536Z,91.06
2022-12-18T06:54:55.754Z,90.87
2022-12-18T06:57:57.974Z,90.69
2022-12-18T07:01:05.098Z,90.11
2022-12-18T07:04:07.526Z,89.79
2022-12-18T07:07:09.766Z,89.33
2022-12-18T07:10:12.009Z,89.37
2022-12-18T07:13:14.187Z,89.18
2022-12-18T07:16:25.253Z,89.31
2022-12-18T07:19:28.011Z,89.26
2022-12-18T07:22:31.698Z,89.29
2022-12-18T07:25:38.037Z,88.57
2022-12-18T07:28:41.676Z,88.00
2022-12-18T07:31:44.022Z,88.32
2022-12-18T07:34:46.287Z,87.91
2022-12-18T07:37:49.515Z,87.96
2022-12-18T07:40:51.813Z,87.68
2022-12-18T07:43:54.038Z,87.27
2022-12-18T07:46:56.424Z,87.11
2022-12-18T07:49:58.612Z,86.97
2022-12-18T07:53:04.543Z,86.48
2022-12-18T07:59:32.008Z,85.24
2022-12-18T08:02:34.372Z,84.92
2022-12-18T08:05:36.983Z,85.03
2022-12-18T08:08:39.298Z,84.64
2022-12-18T08:11:41.591Z,84.19
2022-12-18T08:14:43.770Z,83.82
2022-12-18T08:17:46.004Z,83.64
2022-12-18T08:20:48.207Z,83.04
2022-12-18T08:23:52.086Z,83.11
2022-12-18T08:27:20.858Z,83.09
2022-12-18T08:30:16.900Z,82.99
2022-12-18T08:33:19.232Z,83.31
2022-12-18T08:36:22.234Z,82.71
2022-12-18T08:39:24.471Z,83.33
2022-12-18T08:42:45.224Z,82.56
2022-12-18T08:45:47.519Z,82.29
2022-12-18T08:48:52.410Z,82.98
2022-12-18T08:51:58.092Z,82.68
2022-12-18T08:55:00.480Z,82.41
2022-12-18T08:58:02.712Z,82.53
2022-12-18T09:01:07.940Z,82.24
2022-12-18T09:04:11.039Z,81.38
2022-12-18T09:07:13.276Z,81.58
2022-12-18T09:10:15.537Z,81.67
2022-12-18T09:13:18.822Z,81.35
2022-12-18T09:16:24.969Z,81.87
2022-12-18T09:19:29.578Z,82.24
2022-12-18T09:22:32.006Z,81.79
2022-12-18T09:25:36.753Z,82.00
2022-12-18T09:28:39.418Z,82.29
2022-12-18T09:31:41.855Z,82.31
2022-12-18T09:34:44.116Z,82.64
2022-12-18T09:37:46.489Z,82.67
2022-12-18T09:40:54.966Z,83.04
2022-12-18T09:44:02.145Z,82.96
2022-12-18T09:47:19.519Z,83.22
2022-12-18T09:50:31.961Z,82.70
2022-12-18T09:53:39.183Z,82.20
2022-12-18T09:56:43.457Z,82.83
2022-12-18T09:59:52.901Z,81.99
2022-12-18T10:03:03.982Z,81.31
2022-12-18T10:06:33.022Z,80.59
2022-12-18T10:09:42.307Z,80.52
2022-12-18T10:13:26.889Z,78.39
2022-12-18T10:16:36.787Z,76.95
2022-12-18T10:20:00.674Z,75.09
2022-12-18T10:23:25.377Z,72.62
2022-12-18T10:26:35.823Z,70.71
2022-12-18T10:29:38.703Z,70.59
2022-12-18T10:32:41.061Z,66.24
2022-12-18T10:35:44.013Z,64.46
2022-12-18T10:38:46.391Z,65.15
2022-12-18T10:41:52.754Z,64.55
2022-12-18T10:45:14.629Z,66.02
2022-12-18T10:48:22.946Z,62.19
2022-12-18T10:51:34.621Z,61.09
2022-12-18T10:54:37.366Z,62.97
2022-12-18T10:57:42.552Z,55.48
2022-12-18T11:00:44.855Z,52.09
2022-12-18T11:04:02.744Z,46.92
2022-12-18T11:07:07.953Z,46.68
2022-12-18T11:10:18.918Z,44.69
2022-12-18T11:13:24.062Z,43.01
2022-12-18T11:16:27.550Z,45.86
2022-12-18T11:19:32.770Z,44.77
2022-12-18T11:22:37.229Z,42.92
2022-12-18T11:25:39.999Z,40.62
2022-12-18T11:28:49.275Z,40.41
2022-12-18T11:31:51.531Z,40.80
2022-12-18T11:35:28.823Z,40.89
2022-12-18T11:38:35.583Z,39.19
2022-12-18T11:42:12.902Z,39.52
2022-12-18T11:45:15.336Z,39.43
2022-12-18T11:48:33.513Z,38.94
2022-12-18T11:51:51.000Z,39.10
2022-12-18T11:54:59.120Z,38.06
2022-12-18T11:58:20.314Z,37.77
2022-12-18T12:01:42.085Z,37.83
2022-12-18T12:05:04.612Z,38.13
2022-12-18T12:08:44.152Z,38.06
2022-12-18T12:12:25.076Z,39.72
2022-12-18T12:16:02.174Z,39.00
2022-12-18T12:19:28.558Z,39.39
2022-12-18T12:22:39.354Z,38.35
2022-12-18T12:25:50.523Z,38.59
2022-12-18T12:29:01.682Z,38.07
2022-12-18T12:32:13.588Z,42.22
2022-12-18T12:35:44.211Z,41.98
2022-12-18T12:38:52.283Z,40.66
2022-12-18T12:42:13.733Z,40.78
2022-12-18T12:45:23.852Z,40.27
2022-12-18T12:48:44.167Z,39.53
2022-12-18T12:52:08.535Z,40.63
2022-12-18T12:55:19.858Z,40.64
2022-12-18T12:59:08.153Z,41.23
2022-12-18T13:02:23.771Z,43.27
2022-12-18T13:05:46.683Z,44.60
2022-12-18T13:08:56.215Z,44.41
2022-12-18T13:12:24.008Z,45.95
2022-12-18T13:15:36.853Z,44.84
2022-12-18T13:18:53.479Z,44.53
2022-12-18T13:21:57.380Z,45.43
2022-12-18T13:25:00.739Z,47.27
2022-12-18T13:28:06.483Z,48.39
2022-12-18T13:31:08.892Z,47.54
2022-12-18T13:34:29.495Z,47.52
2022-12-18T13:37:44.753Z,48.09
2022-12-18T13:40:47.199Z,47.39
2022-12-18T13:43:54.401Z,47.27
2022-12-18T13:46:57.477Z,49.12
2022-12-18T13:50:00.586Z,49.49
2022-12-18T13:53:04.318Z,48.70
2022-12-18T13:56:07.002Z,49.95
2022-12-18T13:59:17.582Z,51.32
2022-12-18T14:02:26.549Z,53.95
2022-12-18T14:05:33.385Z,57.14
2022-12-18T14:08:41.165Z,58.49
2022-12-18T14:11:48.519Z,59.32
2022-12-18T14:14:55.037Z,63.89
2022-12-18T14:18:15.583Z,68.78
2022-12-18T14:21:36.189Z,70.32
2022-12-18T14:24:38.457Z,71.74
2022-12-18T14:27:46.542Z,73.43
2022-12-18T14:30:49.677Z,75.49
2022-12-18T14:33:52.736Z,76.61
2022-12-18T14:36:56.877Z,78.25
2022-12-18T14:40:10.853Z,79.49
2022-12-18T14:43:14.121Z,82.08
2022-12-18T14:46:46.780Z,83.47
2022-12-18T14:49:49.190Z,85.60
2022-12-18T14:52:51.926Z,86.34
2022-12-18T14:55:54.259Z,88.37
2022-12-18T14:59:24.235Z,88.43
2022-12-18T15:02:29.903Z,88.88
2022-12-18T15:05:33.707Z,88.97
2022-12-18T15:08:37.961Z,89.68
2022-12-18T15:11:43.036Z,90.29
2022-12-18T15:14:45.418Z,91.36
2022-12-18T15:17:47.665Z,92.37
2022-12-18T15:20:49.828Z,92.34
2022-12-18T15:23:53.138Z,92.24
2022-12-18T15:26:55.331Z,91.99
2022-12-18T15:30:22.571Z,92.30
2022-12-18T15:33:32.270Z,92.51
2022-12-18T15:36:37.488Z,92.69
2022-12-18T15:39:40.139Z,92.76
2022-12-18T15:43:01.595Z,92.83
2022-12-18T15:46:06.405Z,93.03
2022-12-18T15:49:09.079Z,93.19
2022-12-18T15:52:14.648Z,93.57
2022-12-18T15:55:41.440Z,93.51
2022-12-18T15:58:44.115Z,93.60
2022-12-18T16:01:50.232Z,93.68
2022-12-18T16:04:53.252Z,93.62
2022-12-18T16:07:55.779Z,94.60
2022-12-18T16:10:58.905Z,94.32
2022-12-18T16:14:01.131Z,94.72
2022-12-18T16:17:06.928Z,94.64
2022-12-18T16:20:21.752Z,94.88
2022-12-18T16:23:23.948Z,94.86
2022-12-18T16:26:26.673Z,95.08
2022-12-18T16:29:30.385Z,95.35
2022-12-18T16:32:32.843Z,95.17
2022-12-18T16:35:38.092Z,95.45
2022-12-18T16:38:40.421Z,95.64
2022-12-18T16:41:42.911Z,95.26
2022-12-18T16:44:46.591Z,95.11
2022-12-18T16:47:48.887Z,95.43
2022-12-18T16:50:51.079Z,95.43
2022-12-18T16:53:56.682Z,95.63
2022-12-18T16:56:59.010Z,95.87
2022-12-18T17:00:05.722Z,95.82
2022-12-18T17:03:08.313Z,95.79
2022-12-18T17:06:10.790Z,96.63
2022-12-18T17:09:17.852Z,96.94
2022-12-18T17:12:20.832Z,97.23
2022-12-18T17:15:23.364Z,97.21
2022-12-18T17:18:26.975Z,96.82
2022-12-18T17:21:29.297Z,96.66
2022-12-18T17:24:35.052Z,96.92
2022-12-18T17:27:37.846Z,96.98
2022-12-18T17:30:40.158Z,97.14
2022-12-18T17:33:43.503Z,97.08
2022-12-18T17:36:46.113Z,97.39
2022-12-18T17:39:48.333Z,97.44
2022-12-18T17:42:53.120Z,96.91
2022-12-18T17:45:55.383Z,97.17
2022-12-18T17:49:00.139Z,96.99
2022-12-18T17:52:02.383Z,97.14
2022-12-18T17:55:04.984Z,97.64
2022-12-18T17:58:07.240Z,97.30
2022-12-18T18:01:11.107Z,96.86
2022-12-18T18:04:15.872Z,98.39
2022-12-18T18:07:18.218Z,98.18
2022-12-18T18:10:20.560Z,97.81
2022-12-18T18:13:47.075Z,98.03
2022-12-18T18:16:52.537Z,98.47
2022-12-18T18:19:54.728Z,98.18
2022-12-18T18:22:57.631Z,98.04
2022-12-18T18:26:04.776Z,98.16
2022-12-18T18:29:08.977Z,97.92
2022-12-18T18:32:11.843Z,98.10
2022-12-18T18:35:37.475Z,97.76
2022-12-18T18:38:36.721Z,97.87
2022-12-18T18:41:38.966Z,97.74
2022-12-18T18:44:44.533Z,97.70
2022-12-18T18:47:50.967Z,97.89
2022-12-18T18:51:07.536Z,97.62
2022-12-18T18:54:09.974Z,97.87
2022-12-18T18:57:20.236Z,97.97
2022-12-18T19:00:23.141Z,97.98
2022-12-18T19:03:26.337Z,97.92
2022-12-18T19:06:29.085Z,97.53
2022-12-18T19:09:32.100Z,97.54
2022-12-18T19:12:53.373Z,97.63
2022-12-18T19:16:08.665Z,97.42
2022-12-18T19:19:13.003Z,96.89
2022-12-18T19:22:15.477Z,96.98
2022-12-18T19:25:18.420Z,97.27
2022-12-18T19:28:25.951Z,97.63
2022-12-18T19:31:33.343Z,98.39
2022-12-18T19:34:37.615Z,98.62
2022-12-18T19:37:40.316Z,98.34
2022-12-18T19:40:43.647Z,98.27
2022-12-18T19:43:46.591Z,98.46
2022-12-18T19:46:51.542Z,98.61
2022-12-18T19:49:53.809Z,98.58
2022-12-18T19:52:56.135Z,98.63
2022-12-18T19:55:58.373Z,98.22
2022-12-18T19:59:00.874Z,98.43
2022-12-18T20:02:03.529Z,98.36
2022-12-18T20:05:09.627Z,98.36
2022-12-18T20:08:11.997Z,98.33
2022-12-18T20:11:14.272Z,97.81
2022-12-18T20:14:22.287Z,97.82
2022-12-18T20:17:25.970Z,97.64
2022-12-18T20:20:28.313Z,97.91
2022-12-18T20:23:31.013Z,97.85
2022-12-18T20:26:35.524Z,98.35
2022-12-18T20:29:37.818Z,97.86
2022-12-18T20:32:40.012Z,97.79
2022-12-18T20:35:42.216Z,97.50
2022-12-18T20:38:45.295Z,97.31
2022-12-18T20:41:47.699Z,97.05
2022-12-18T20:44:50.959Z,97.45
2022-12-18T20:47:56.254Z,97.15
2022-12-18T20:51:07.692Z,97.23
2022-12-18T20:54:11.927Z,97.38
2022-12-18T20:57:14.628Z,97.86
2022-12-18T21:00:18.981Z,98.23
2022-12-18T21:03:23.530Z,98.88
2022-12-18T21:06:25.743Z,98.75
2022-12-18T21:09:28.118Z,98.76
2022-12-18T21:12:49.602Z,98.56
2022-12-18T21:16:02.498Z,98.10
2022-12-18T21:19:05.792Z,97.93
2022-12-18T21:22:08.054Z,96.82
2022-12-18T21:25:10.330Z,98.34
2022-12-18T21:28:12.545Z,99.00
2022-12-18T21:31:14.938Z,99.30
2022-12-18T21:34:20.185Z,99.43
2022-12-18T21:37:22.404Z,99.47
2022-12-18T21:40:25.012Z,99.99
2022-12-18T21:43:45.376Z,99.99
2022-12-18T21:46:55.690Z,99.99
2022-12-18T21:50:00.536Z,99.52
2022-12-18T21:53:02.732Z,99.19
2022-12-18T21:56:05.519Z,99.01
2022-12-18T21:59:07.716Z,98.79
2022-12-18T22:02:19.773Z,99.50
2022-12-18T22:05:22.364Z,99.24
2022-12-18T22:08:24.961Z,99.42
2022-12-18T22:11:27.377Z,98.95
2022-12-18T22:14:29.612Z,99.00
2022-12-18T22:17:31.994Z,99.99
2022-12-18T22:20:34.463Z,99.99
2022-12-18T22:23:36.692Z,99.99
2022-12-18T22:26:40.273Z,99.99
2022-12-18T22:30:01.474Z,99.99
2022-12-18T22:33:03.964Z,99.99
2022-12-18T22:36:07.462Z,99.99
2022-12-18T22:39:13.290Z,99.99
2022-12-18T22:42:15.499Z,99.99
2022-12-18T22:45:17.670Z,99.99
2022-12-18T22:48:19.867Z,99.99
2022-12-18T22:51:22.111Z,99.99
2022-12-18T22:54:24.506Z,99.99
2022-12-18T22:57:27.531Z,99.99
2022-12-18T23:00:29.721Z,99.99
2022-12-18T23:03:35.101Z,99.99
2022-12-18T23:06:37.382Z,99.99
2022-12-18T23:09:45.922Z,99.99
2022-12-18T23:12:50.515Z,99.99
2022-12-18T23:15:52.884Z,99.99
2022-12-18T23:18:56.533Z,99.99
2022-12-18T23:21:59.170Z,99.87
2022-12-18T23:25:01.440Z,99.86
2022-12-18T23:28:04.099Z,99.99
2022-12-18T23:31:12.901Z,99.43
2022-12-18T23:34:18.066Z,99.26
2022-12-18T23:37:49.768Z,98.95
2022-12-18T23:40:42.408Z,98.36
2022-12-18T23:43:47.432Z,98.35
2022-12-18T23:46:50.749Z,97.94
2022-12-18T23:49:53.057Z,97.48
2022-12-18T23:52:56.874Z,97.61
2022-12-18T23:56:03.743Z,97.70
2022-12-18T23:59:07.460Z,97.79
